createdAt,value
2019-02-23T00:01:33.042Z,82.54
2019-02-23T00:04:02.169Z,81.50
2019-02-23T00:06:30.537Z,80.94
2019-02-23T00:08:59.133Z,81.70
2019-02-23T00:11:27.440Z,81.52
2019-02-23T00:13:55.460Z,82.10
2019-02-23T00:16:23.464Z,82.16
2019-02-23T00:18:53.631Z,81.37
2019-02-23T00:21:22.252Z,81.27
2019-02-23T00:23:50.854Z,81.59
2019-02-23T00:26:18.792Z,82.41
2019-02-23T00:28:47.574Z,80.98
2019-02-23T00:31:16.476Z,81.18
2019-02-23T00:33:45.151Z,82.04
2019-02-23T00:36:13.440Z,81.90
2019-02-23T00:38:41.409Z,81.23
2019-02-23T00:41:09.322Z,81.94
2019-02-23T00:43:37.226Z,82.08
2019-02-23T00:46:05.211Z,81.45
2019-02-23T00:48:33.665Z,81.06
2019-02-23T00:51:02.355Z,80.61
2019-02-23T00:53:31.018Z,81.87
2019-02-23T00:55:59.069Z,81.80
2019-02-23T00:58:27.280Z,82.83
2019-02-23T01:00:56.520Z,82.79
2019-02-23T01:03:24.869Z,82.96
2019-02-23T01:05:53.129Z,81.00
2019-02-23T01:08:21.931Z,80.24
2019-02-23T01:10:57.838Z,81.84
2019-02-23T01:13:20.661Z,80.86
2019-02-23T01:15:49.217Z,82.00
2019-02-23T01:18:17.607Z,82.53
2019-02-23T01:20:46.096Z,81.64
2019-02-23T01:23:14.310Z,83.04
2019-02-23T01:25:42.192Z,80.76
2019-02-23T01:28:10.819Z,81.40
2019-02-23T01:30:39.213Z,82.12
2019-02-23T01:33:07.839Z,81.52
2019-02-23T01:35:35.772Z,81.79
2019-02-23T01:38:04.448Z,81.71
2019-02-23T01:40:32.448Z,81.57
2019-02-23T01:43:00.453Z,82.43
2019-02-23T01:45:28.432Z,82.30
2019-02-23T01:47:56.971Z,80.89
2019-02-23T01:50:25.447Z,81.93
2019-02-23T01:52:53.428Z,80.90
2019-02-23T01:55:21.886Z,81.96
2019-02-23T01:57:50.085Z,81.80
2019-02-23T02:00:19.121Z,82.33
2019-02-23T02:02:48.130Z,81.88
2019-02-23T02:05:16.403Z,81.41
2019-02-23T02:07:44.665Z,80.97
2019-02-23T02:10:13.567Z,81.08
2019-02-23T02:12:42.479Z,80.29
2019-02-23T02:15:13.163Z,80.53
2019-02-23T02:17:41.765Z,81.09
2019-02-23T02:20:11.338Z,80.89
2019-02-23T02:22:39.781Z,81.04
2019-02-23T02:25:08.317Z,80.80
2019-02-23T02:27:36.967Z,80.35
2019-02-23T02:30:14.065Z,80.78
2019-02-23T02:32:42.129Z,81.38
2019-02-23T02:35:10.718Z,81.10
2019-02-23T02:37:38.767Z,81.16
2019-02-23T02:40:07.868Z,80.69
2019-02-23T02:42:36.725Z,80.51
2019-02-23T02:45:06.345Z,80.23
2019-02-23T02:47:34.451Z,80.96
2019-02-23T02:50:02.987Z,80.98
2019-02-23T02:52:30.929Z,80.96
2019-02-23T02:54:59.703Z,81.92
2019-02-23T02:57:28.028Z,81.96
2019-02-23T02:59:56.687Z,81.87
2019-02-23T03:02:24.724Z,82.06
2019-02-23T03:04:53.472Z,81.93
2019-02-23T03:07:22.787Z,81.43
2019-02-23T03:09:50.810Z,81.74
2019-02-23T03:12:19.611Z,81.58
2019-02-23T03:14:47.675Z,81.61
2019-02-23T03:17:16.082Z,80.70
2019-02-23T03:19:44.153Z,80.04
2019-02-23T03:22:15.954Z,80.26
2019-02-23T03:24:44.547Z,81.03
2019-02-23T03:27:13.185Z,80.86
2019-02-23T03:29:41.460Z,81.08
2019-02-23T03:32:12.359Z,81.21
2019-02-23T03:34:40.760Z,81.34
2019-02-23T03:37:09.480Z,81.36
2019-02-23T03:39:38.354Z,81.72
2019-02-23T03:42:06.640Z,81.05
2019-02-23T03:44:34.612Z,81.11
2019-02-23T03:47:02.918Z,81.56
2019-02-23T03:49:31.143Z,81.44
2019-02-23T03:51:59.148Z,80.84
2019-02-23T03:54:27.758Z,80.38
2019-02-23T03:56:57.328Z,80.24
2019-02-23T03:59:25.779Z,80.68
2019-02-23T04:01:54.347Z,80.70
2019-02-23T04:04:22.777Z,80.95
2019-02-23T04:06:51.431Z,81.22
2019-02-23T04:09:19.403Z,80.76
2019-02-23T04:11:48.078Z,81.84
2019-02-23T04:14:16.852Z,80.43
2019-02-23T04:16:45.212Z,81.51
2019-02-23T04:19:13.489Z,82.19
2019-02-23T04:21:41.966Z,82.57
2019-02-23T04:24:10.301Z,82.31
2019-02-23T04:26:38.226Z,82.16
2019-02-23T04:29:06.384Z,82.04
2019-02-23T04:31:34.766Z,81.19
2019-02-23T04:34:03.302Z,81.02
2019-02-23T04:36:32.279Z,80.42
2019-02-23T04:39:00.538Z,81.63
2019-02-23T04:41:29.244Z,81.87
2019-02-23T04:43:57.589Z,82.06
2019-02-23T04:46:25.590Z,82.30
2019-02-23T04:48:53.584Z,81.65
2019-02-23T04:51:21.846Z,82.21
2019-02-23T04:53:49.762Z,82.00
2019-02-23T04:56:18.086Z,82.69
2019-02-23T04:58:46.257Z,82.04
2019-02-23T05:01:14.880Z,81.99
2019-02-23T05:03:43.294Z,82.22
2019-02-23T05:06:11.392Z,82.04
2019-02-23T05:08:39.732Z,82.11
2019-02-23T05:11:08.044Z,82.04
2019-02-23T05:13:38.500Z,81.71
2019-02-23T05:16:10.018Z,82.34
2019-02-23T05:18:38.662Z,82.55
2019-02-23T05:21:07.155Z,81.88
2019-02-23T05:23:36.444Z,82.05
2019-02-23T05:26:04.641Z,81.70
2019-02-23T05:28:32.989Z,82.11
2019-02-23T05:31:01.325Z,81.99
2019-02-23T05:33:29.562Z,81.58
2019-02-23T05:35:57.605Z,81.55
2019-02-23T05:38:25.383Z,81.56
2019-02-23T05:40:53.953Z,82.12
2019-02-23T05:43:22.094Z,82.50
2019-02-23T05:45:53.057Z,81.98
2019-02-23T05:48:21.306Z,82.03
2019-02-23T05:50:49.547Z,82.16
2019-02-23T05:53:17.816Z,82.36
2019-02-23T05:55:45.816Z,82.14
2019-02-23T05:58:14.412Z,82.37
2019-02-23T06:00:53.021Z,82.52
2019-02-23T06:03:22.107Z,83.05
2019-02-23T06:05:51.984Z,82.41
2019-02-23T06:08:22.338Z,82.72
2019-02-23T06:10:52.215Z,82.39
2019-02-23T06:13:21.849Z,81.66
2019-02-23T06:15:50.879Z,82.37
2019-02-23T06:18:19.126Z,82.25
2019-02-23T06:20:50.868Z,83.02
2019-02-23T06:23:19.052Z,82.27
2019-02-23T06:26:03.869Z,82.07
2019-02-23T06:28:31.499Z,82.32
2019-02-23T06:30:59.142Z,82.60
2019-02-23T06:33:27.432Z,83.34
2019-02-23T06:35:55.359Z,83.27
2019-02-23T06:38:23.148Z,83.09
2019-02-23T06:40:50.576Z,83.67
2019-02-23T06:43:18.706Z,84.68
2019-02-23T06:45:48.203Z,83.92
2019-02-23T06:48:16.199Z,83.57
2019-02-23T06:50:43.898Z,83.79
2019-02-23T06:53:11.597Z,84.54
2019-02-23T06:55:39.633Z,84.16
2019-02-23T06:58:08.016Z,83.91
2019-02-23T07:00:35.988Z,83.78
2019-02-23T07:03:07.791Z,83.98
2019-02-23T07:05:34.963Z,83.16
2019-02-23T07:08:02.173Z,83.22
2019-02-23T07:10:29.815Z,83.31
2019-02-23T07:12:57.367Z,83.66
2019-02-23T07:15:24.979Z,83.12
2019-02-23T07:17:52.485Z,82.65
2019-02-23T07:20:21.946Z,82.99
2019-02-23T07:22:49.080Z,82.55
2019-02-23T07:25:16.777Z,82.14
2019-02-23T07:27:45.105Z,81.94
2019-02-23T07:30:12.663Z,82.17
2019-02-23T07:32:40.998Z,81.96
2019-02-23T07:35:08.986Z,81.36
2019-02-23T07:37:36.712Z,80.86
2019-02-23T07:40:04.718Z,80.40
2019-02-23T07:42:32.764Z,80.55
2019-02-23T07:45:00.325Z,79.68
2019-02-23T07:47:28.069Z,79.28
2019-02-23T07:49:56.296Z,78.94
2019-02-23T07:52:26.627Z,78.42
2019-02-23T07:54:53.727Z,77.12
2019-02-23T07:57:21.668Z,75.70
2019-02-23T07:59:49.214Z,74.74
2019-02-23T08:02:16.810Z,73.63
2019-02-23T08:04:44.086Z,71.88
2019-02-23T08:07:11.858Z,72.66
2019-02-23T08:09:39.398Z,70.48
2019-02-23T08:12:07.187Z,68.11
2019-02-23T08:14:34.704Z,68.92
2019-02-23T08:17:02.557Z,66.73
2019-02-23T08:19:30.287Z,66.64
2019-02-23T08:21:57.976Z,65.60
2019-02-23T08:24:25.256Z,63.86
2019-02-23T08:26:52.865Z,63.64
2019-02-23T08:29:20.390Z,62.25
2019-02-23T08:31:47.692Z,63.08
2019-02-23T08:34:15.497Z,61.33
2019-02-23T08:36:42.815Z,59.03
2019-02-23T08:39:10.100Z,61.06
2019-02-23T08:41:38.279Z,62.41
2019-02-23T08:44:05.980Z,60.70
2019-02-23T08:46:33.774Z,59.37
2019-02-23T08:49:01.199Z,57.77
2019-02-23T08:51:28.321Z,56.60
2019-02-23T08:53:55.760Z,56.97
2019-02-23T08:56:23.698Z,56.51
2019-02-23T08:58:51.102Z,58.11
2019-02-23T09:01:18.828Z,57.48
2019-02-23T09:03:46.592Z,55.02
2019-02-23T09:06:14.154Z,54.61
2019-02-23T09:08:41.569Z,54.22
2019-02-23T09:11:09.215Z,57.33
2019-02-23T09:13:36.623Z,53.68
2019-02-23T09:16:04.163Z,54.06
2019-02-23T09:18:31.765Z,58.12
2019-02-23T09:20:59.637Z,55.36
2019-02-23T09:23:27.711Z,55.98
2019-02-23T09:25:57.813Z,54.69
2019-02-23T09:28:25.400Z,52.17
2019-02-23T09:30:52.706Z,49.93
2019-02-23T09:33:20.369Z,51.49
2019-02-23T09:35:47.660Z,53.69
2019-02-23T09:38:14.788Z,50.28
2019-02-23T09:40:42.708Z,50.30
2019-02-23T09:43:10.565Z,49.52
2019-02-23T09:45:37.805Z,54.58
2019-02-23T09:48:05.403Z,49.69
2019-02-23T09:50:32.651Z,50.11
2019-02-23T09:53:10.450Z,55.82
2019-02-23T09:55:30.259Z,55.42
2019-02-23T09:57:58.054Z,56.16
2019-02-23T10:00:25.977Z,47.29
2019-02-23T10:02:53.533Z,51.94
2019-02-23T10:05:20.810Z,53.80
2019-02-23T10:07:48.238Z,47.23
2019-02-23T10:10:16.232Z,48.37
2019-02-23T10:12:43.744Z,48.33
2019-02-23T10:15:12.810Z,55.25
2019-02-23T10:17:40.076Z,52.64
2019-02-23T10:20:08.074Z,48.25
2019-02-23T10:22:35.658Z,43.65
2019-02-23T10:25:03.503Z,48.43
2019-02-23T10:27:30.730Z,44.00
2019-02-23T10:29:58.673Z,44.05
2019-02-23T10:32:26.641Z,41.24
2019-02-23T10:34:54.647Z,45.71
2019-02-23T10:37:22.480Z,44.36
2019-02-23T10:39:49.983Z,45.40
2019-02-23T10:42:17.923Z,46.53
2019-02-23T10:44:46.406Z,40.53
2019-02-23T10:47:14.732Z,41.50
2019-02-23T10:49:42.127Z,42.51
2019-02-23T10:52:09.899Z,39.85
2019-02-23T10:54:37.683Z,40.12
2019-02-23T10:57:05.193Z,37.92
2019-02-23T10:59:32.930Z,38.40
2019-02-23T11:02:01.149Z,42.88
2019-02-23T11:04:33.056Z,39.04
2019-02-23T11:07:01.481Z,42.40
2019-02-23T11:09:35.080Z,35.94
2019-02-23T11:12:05.124Z,38.60
2019-02-23T11:14:32.528Z,38.50
2019-02-23T11:17:00.531Z,39.22
2019-02-23T11:19:28.822Z,39.13
2019-02-23T11:21:56.593Z,36.50
2019-02-23T11:24:24.167Z,35.70
2019-02-23T11:26:52.247Z,33.87
2019-02-23T11:29:20.901Z,36.43
2019-02-23T11:31:48.741Z,35.71
2019-02-23T11:34:16.469Z,35.06
2019-02-23T11:36:43.835Z,33.74
2019-02-23T11:39:11.649Z,36.51
2019-02-23T11:41:39.326Z,37.51
2019-02-23T11:44:07.064Z,33.84
2019-02-23T11:46:34.872Z,34.64
2019-02-23T11:49:02.171Z,34.27
2019-02-23T11:51:29.547Z,34.81
2019-02-23T11:53:57.155Z,34.63
2019-02-23T11:56:24.674Z,34.76
2019-02-23T11:58:52.166Z,33.63
2019-02-23T12:01:19.638Z,31.64
2019-02-23T12:03:47.257Z,33.76
2019-02-23T12:06:14.792Z,31.82
2019-02-23T12:08:42.437Z,33.53
2019-02-23T12:11:10.471Z,32.25
2019-02-23T12:13:37.941Z,31.48
2019-02-23T12:16:05.761Z,32.94
2019-02-23T12:18:33.353Z,32.50
2019-02-23T12:21:01.459Z,30.93
2019-02-23T12:23:29.328Z,34.07
2019-02-23T12:25:57.439Z,32.90
2019-02-23T12:28:24.985Z,34.09
2019-02-23T12:30:52.640Z,35.62
2019-02-23T12:33:19.840Z,34.48
2019-02-23T12:35:47.332Z,34.74
2019-02-23T12:38:17.802Z,33.75
2019-02-23T12:40:45.464Z,36.60
2019-02-23T12:43:12.587Z,33.46
2019-02-23T12:45:40.035Z,35.40
2019-02-23T12:48:07.392Z,34.01
2019-02-23T12:50:34.669Z,36.58
2019-02-23T12:53:02.254Z,36.46
2019-02-23T12:55:29.833Z,34.06
2019-02-23T12:57:57.722Z,36.35
2019-02-23T13:00:25.139Z,34.00
2019-02-23T13:02:52.434Z,39.84
2019-02-23T13:05:20.258Z,38.71
2019-02-23T13:07:48.652Z,36.83
2019-02-23T13:10:16.265Z,36.85
2019-02-23T13:13:48.126Z,37.23
2019-02-23T13:17:00.893Z,40.59
2019-02-23T13:20:11.976Z,36.66
2019-02-23T13:23:22.882Z,34.82
2019-02-23T13:26:49.248Z,34.13
2019-02-23T13:30:09.035Z,35.69
2019-02-23T13:33:28.453Z,35.67
2019-02-23T13:37:15.235Z,34.82
2019-02-23T13:41:09.181Z,35.68
2019-02-23T13:44:22.956Z,35.93
2019-02-23T13:47:34.369Z,37.54
2019-02-23T13:50:43.703Z,34.70
2019-02-23T13:54:06.011Z,33.56
2019-02-23T13:57:11.931Z,34.21
2019-02-23T14:00:16.332Z,34.65
2019-02-23T14:03:45.578Z,36.50
2019-02-23T14:06:52.404Z,36.45
2019-02-23T14:10:17.806Z,32.87
2019-02-23T14:13:35.968Z,31.32
2019-02-23T14:16:52.522Z,33.29
2019-02-23T14:19:58.295Z,34.62
2019-02-23T14:23:17.198Z,33.42
2019-02-23T14:26:18.377Z,32.71
2019-02-23T14:29:53.444Z,34.15
2019-02-23T14:33:08.080Z,36.33
2019-02-23T14:36:21.649Z,35.03
2019-02-23T14:39:40.686Z,33.04
2019-02-23T14:42:59.826Z,34.10
2019-02-23T14:46:09.970Z,34.24
2019-02-23T14:49:23.783Z,34.75
2019-02-23T14:52:54.473Z,34.69
2019-02-23T14:55:46.113Z,36.07
2019-02-23T14:58:49.872Z,36.53
2019-02-23T15:02:14.554Z,34.07
2019-02-23T15:05:25.078Z,34.13
2019-02-23T15:08:39.430Z,33.79
2019-02-23T15:12:01.312Z,36.62
2019-02-23T15:15:03.298Z,34.71
2019-02-23T15:18:39.744Z,36.35
2019-02-23T15:21:24.674Z,36.16
2019-02-23T15:25:12.779Z,35.22
2019-02-23T15:28:47.967Z,36.99
2019-02-23T15:32:24.136Z,36.22
2019-02-23T15:35:25.654Z,38.55
2019-02-23T15:38:16.363Z,37.01
2019-02-23T15:41:05.356Z,34.82
2019-02-23T15:44:05.723Z,35.43
2019-02-23T15:47:16.743Z,35.63
2019-02-23T15:49:43.907Z,37.29
2019-02-23T15:52:11.348Z,36.79
2019-02-23T15:54:39.081Z,35.64
2019-02-23T15:57:06.638Z,39.51
2019-02-23T15:59:37.610Z,38.15
2019-02-23T16:02:05.519Z,38.94
2019-02-23T16:04:33.198Z,38.94
2019-02-23T16:07:01.506Z,37.77
2019-02-23T16:09:29.586Z,37.25
2019-02-23T16:11:57.008Z,40.68
2019-02-23T16:14:24.704Z,37.93
2019-02-23T16:16:52.333Z,41.47
2019-02-23T16:19:20.246Z,40.88
2019-02-23T16:21:48.222Z,39.44
2019-02-23T16:24:16.058Z,39.23
2019-02-23T16:26:44.137Z,38.64
2019-02-23T16:29:11.802Z,39.46
2019-02-23T16:31:39.658Z,39.96
2019-02-23T16:34:09.136Z,39.10
2019-02-23T16:36:36.632Z,40.51
2019-02-23T16:39:09.867Z,40.54
2019-02-23T16:41:37.860Z,41.77
2019-02-23T16:44:05.865Z,40.13
2019-02-23T16:46:34.419Z,41.33
2019-02-23T16:49:02.504Z,41.86
2019-02-23T16:51:30.333Z,41.33
2019-02-23T16:53:58.504Z,41.88
2019-02-23T16:56:25.885Z,42.13
2019-02-23T16:58:54.186Z,42.67
2019-02-23T17:01:21.774Z,41.93
2019-02-23T17:03:49.735Z,43.31
2019-02-23T17:06:17.767Z,41.64
2019-02-23T17:08:45.377Z,43.54
2019-02-23T17:11:12.801Z,45.30
2019-02-23T17:13:40.103Z,43.99
2019-02-23T17:16:07.353Z,41.73
2019-02-23T17:18:35.905Z,42.32
2019-02-23T17:21:03.551Z,43.40
2019-02-23T17:23:31.184Z,45.24
2019-02-23T17:26:04.134Z,44.01
2019-02-23T17:28:28.984Z,46.55
2019-02-23T17:30:56.816Z,42.73
2019-02-23T17:33:27.791Z,46.07
2019-02-23T17:35:53.878Z,43.40
2019-02-23T17:38:21.556Z,43.77
2019-02-23T17:40:49.417Z,44.19
2019-02-23T17:43:16.715Z,47.31
2019-02-23T17:45:45.104Z,45.61
2019-02-23T17:48:13.069Z,47.22
2019-02-23T17:50:40.317Z,44.98
2019-02-23T17:53:08.506Z,45.17
2019-02-23T17:55:36.115Z,47.13
2019-02-23T17:58:03.489Z,46.75
2019-02-23T18:00:30.848Z,45.64
2019-02-23T18:02:58.435Z,45.91
2019-02-23T18:05:26.619Z,47.73
2019-02-23T18:07:54.443Z,46.03
2019-02-23T18:10:22.237Z,47.36
2019-02-23T18:12:53.249Z,46.96
2019-02-23T18:15:26.319Z,49.02
2019-02-23T18:17:54.092Z,47.44
2019-02-23T18:20:22.148Z,49.41
2019-02-23T18:22:51.026Z,48.42
2019-02-23T18:25:21.450Z,50.23
2019-02-23T18:27:59.136Z,50.23
2019-02-23T18:30:31.267Z,49.76
2019-02-23T18:33:01.694Z,49.89
2019-02-23T18:35:29.300Z,49.86
2019-02-23T18:37:57.177Z,50.79
2019-02-23T18:40:25.911Z,50.75
2019-02-23T18:42:54.041Z,51.10
2019-02-23T18:45:21.561Z,51.86
2019-02-23T18:47:49.078Z,51.55
2019-02-23T18:50:22.149Z,51.67
2019-02-23T18:52:49.703Z,52.17
2019-02-23T18:55:20.782Z,52.21
2019-02-23T18:57:48.537Z,52.27
2019-02-23T19:00:24.001Z,51.64
2019-02-23T19:02:45.188Z,52.10
2019-02-23T19:05:12.645Z,52.64
2019-02-23T19:07:40.025Z,52.81
2019-02-23T19:10:09.915Z,53.48
2019-02-23T19:12:37.704Z,53.81
2019-02-23T19:15:07.040Z,54.62
2019-02-23T19:17:34.182Z,54.33
2019-02-23T19:20:01.595Z,55.02
2019-02-23T19:22:29.269Z,54.41
2019-02-23T19:24:56.825Z,55.38
2019-02-23T19:27:24.492Z,54.99
2019-02-23T19:29:52.237Z,56.00
2019-02-23T19:32:19.831Z,56.31
2019-02-23T19:34:47.240Z,55.54
2019-02-23T19:37:14.665Z,56.01
2019-02-23T19:39:42.246Z,55.77
2019-02-23T19:42:10.055Z,56.56
2019-02-23T19:44:37.496Z,56.36
2019-02-23T19:47:15.813Z,55.46
2019-02-23T19:49:43.215Z,55.99
2019-02-23T19:52:13.153Z,56.26
2019-02-23T19:54:40.817Z,56.65
2019-02-23T19:57:08.249Z,56.73
2019-02-23T19:59:35.810Z,56.62
2019-02-23T20:02:03.636Z,56.39
2019-02-23T20:04:31.515Z,56.94
2019-02-23T20:06:59.398Z,57.49
2019-02-23T20:09:27.381Z,56.70
2019-02-23T20:11:55.040Z,56.83
2019-02-23T20:14:22.890Z,56.98
2019-02-23T20:16:50.480Z,56.77
2019-02-23T20:19:19.697Z,56.36
2019-02-23T20:21:47.673Z,57.57
2019-02-23T20:24:15.544Z,57.93
2019-02-23T20:26:43.373Z,58.22
2019-02-23T20:29:11.649Z,58.19
2019-02-23T20:31:39.220Z,58.29
2019-02-23T20:34:06.767Z,57.79
2019-02-23T20:36:34.741Z,56.84
2019-02-23T20:39:03.054Z,57.49
2019-02-23T20:41:30.957Z,57.77
2019-02-23T20:43:59.079Z,58.36
2019-02-23T20:46:26.624Z,58.41
2019-02-23T20:48:53.815Z,57.49
2019-02-23T20:51:21.774Z,57.06
2019-02-23T20:53:49.736Z,57.37
2019-02-23T20:56:17.198Z,57.88
2019-02-23T20:58:44.324Z,58.33
2019-02-23T21:01:12.462Z,57.47
2019-02-23T21:03:40.464Z,58.00
2019-02-23T21:06:07.729Z,58.15
2019-02-23T21:08:35.918Z,58.98
2019-02-23T21:11:03.514Z,59.20
2019-02-23T21:13:31.224Z,59.51
2019-02-23T21:15:58.529Z,59.75
2019-02-23T21:18:26.130Z,59.65
2019-02-23T21:20:53.269Z,59.83
2019-02-23T21:23:21.376Z,59.92
2019-02-23T21:25:48.901Z,60.17
2019-02-23T21:28:16.264Z,60.08
2019-02-23T21:30:43.636Z,59.90
2019-02-23T21:33:11.213Z,60.58
2019-02-23T21:35:38.919Z,59.93
2019-02-23T21:38:06.561Z,59.60
2019-02-23T21:40:33.722Z,59.96
2019-02-23T21:43:01.255Z,60.46
2019-02-23T21:45:30.198Z,60.25
2019-02-23T21:47:57.814Z,60.86
2019-02-23T21:50:25.302Z,61.05
2019-02-23T21:52:52.623Z,61.51
2019-02-23T21:55:20.422Z,61.33
2019-02-23T21:57:47.619Z,61.89
2019-02-23T22:00:15.118Z,61.59
2019-02-23T22:02:42.841Z,61.40
2019-02-23T22:05:12.680Z,61.79
2019-02-23T22:07:40.345Z,62.12
2019-02-23T22:10:08.181Z,62.41
2019-02-23T22:12:35.845Z,62.20
2019-02-23T22:15:03.560Z,62.78
2019-02-23T22:17:30.984Z,62.20
2019-02-23T22:19:58.593Z,62.56
2019-02-23T22:22:26.922Z,62.54
2019-02-23T22:24:54.154Z,62.53
2019-02-23T22:27:31.160Z,63.28
2019-02-23T22:29:54.105Z,64.62
2019-02-23T22:32:21.345Z,64.27
2019-02-23T22:34:48.477Z,65.40
2019-02-23T22:37:15.984Z,65.89
2019-02-23T22:39:43.219Z,66.24
2019-02-23T22:42:10.514Z,67.11
2019-02-23T22:44:38.158Z,67.97
2019-02-23T22:47:05.817Z,67.30
2019-02-23T22:49:33.175Z,67.12
2019-02-23T22:52:01.430Z,67.89
2019-02-23T22:54:28.895Z,67.83
2019-02-23T22:56:56.062Z,67.48
2019-02-23T22:59:23.670Z,66.54
2019-02-23T23:01:51.446Z,66.72
2019-02-23T23:04:19.013Z,65.81
2019-02-23T23:06:46.631Z,67.29
2019-02-23T23:09:17.456Z,67.86
2019-02-23T23:11:45.230Z,66.75
2019-02-23T23:14:13.121Z,66.53
2019-02-23T23:16:40.904Z,66.58
2019-02-23T23:19:08.637Z,66.58
2019-02-23T23:21:36.160Z,66.89
2019-02-23T23:24:03.537Z,66.44
2019-02-23T23:26:31.167Z,67.29
2019-02-23T23:28:58.777Z,67.60
2019-02-23T23:31:26.626Z,67.78
2019-02-23T23:33:54.888Z,67.39
2019-02-23T23:36:22.503Z,67.36
2019-02-23T23:38:50.207Z,66.88
2019-02-23T23:41:18.525Z,66.90
2019-02-23T23:43:46.984Z,67.76
2019-02-23T23:46:14.642Z,66.96
2019-02-23T23:48:42.479Z,68.12
2019-02-23T23:51:09.755Z,67.69
2019-02-23T23:53:37.694Z,67.39
2019-02-23T23:56:04.991Z,67.72
2019-02-23T23:58:33.248Z,69.18
